createdAt,value
2023-02-05T00:00:17.181Z,6.30
2023-02-05T00:02:43.880Z,6.37
2023-02-05T00:05:10.402Z,6.29
2023-02-05T00:07:36.913Z,6.42
2023-02-05T00:10:04.006Z,6.43
2023-02-05T00:12:30.507Z,6.45
2023-02-05T00:14:56.953Z,6.49
2023-02-05T00:17:23.396Z,6.56
2023-02-05T00:19:49.940Z,6.58
2023-02-05T00:22:16.334Z,6.56
2023-02-05T00:24:42.747Z,6.57
2023-02-05T00:27:10.156Z,6.56
2023-02-05T00:29:36.676Z,6.49
2023-02-05T00:32:03.236Z,6.52
2023-02-05T00:34:29.653Z,6.52
2023-02-05T00:36:56.047Z,6.59
2023-02-05T00:39:22.448Z,6.59
2023-02-05T00:41:49.185Z,6.67
2023-02-05T00:44:15.659Z,6.65
2023-02-05T00:46:42.041Z,6.57
2023-02-05T00:49:08.459Z,6.50
2023-02-05T00:51:34.879Z,6.52
2023-02-05T00:54:01.342Z,6.65
2023-02-05T00:56:27.790Z,6.54
2023-02-05T00:58:54.344Z,6.52
2023-02-05T01:01:20.809Z,6.48
2023-02-05T01:03:47.287Z,6.47
2023-02-05T01:06:13.738Z,6.42
2023-02-05T01:08:40.189Z,6.42
2023-02-05T01:11:08.014Z,6.47
2023-02-05T01:13:34.402Z,6.48
2023-02-05T01:16:00.790Z,6.54
2023-02-05T01:18:27.290Z,6.55
2023-02-05T01:20:53.848Z,6.50
2023-02-05T01:23:20.265Z,6.52
2023-02-05T01:25:46.967Z,6.41
2023-02-05T01:28:13.472Z,6.36
2023-02-05T01:30:40.092Z,6.41
2023-02-05T01:33:06.655Z,6.40
2023-02-05T01:35:33.420Z,6.42
2023-02-05T01:38:00.041Z,6.37
2023-02-05T01:40:26.519Z,6.35
2023-02-05T01:42:52.900Z,6.34
2023-02-05T01:45:22.260Z,6.34
2023-02-05T01:47:52.740Z,6.37
2023-02-05T01:50:23.050Z,6.43
2023-02-05T01:52:49.549Z,6.44
2023-02-05T01:55:16.120Z,6.34
2023-02-05T01:57:42.679Z,6.31
2023-02-05T02:00:09.753Z,6.20
2023-02-05T02:02:37.416Z,6.20
2023-02-05T02:05:13.011Z,6.19
2023-02-05T02:07:40.168Z,6.31
2023-02-05T02:10:07.918Z,6.31
2023-02-05T02:12:36.918Z,6.36
2023-02-05T02:15:08.379Z,6.39
2023-02-05T02:17:39.220Z,6.42
2023-02-05T02:20:07.748Z,6.46
2023-02-05T02:22:55.398Z,6.39
2023-02-05T02:25:40.450Z,6.45
2023-02-05T02:28:32.207Z,6.43
2023-02-05T02:31:01.761Z,6.42
2023-02-05T02:33:36.023Z,6.33
2023-02-05T02:36:09.119Z,6.41
2023-02-05T02:38:55.313Z,6.37
2023-02-05T02:41:28.024Z,6.17
2023-02-05T02:44:05.443Z,6.25
2023-02-05T02:46:38.785Z,6.33
2023-02-05T02:49:07.108Z,6.38
2023-02-05T02:51:35.785Z,6.38
2023-02-05T02:54:06.439Z,6.41
2023-02-05T02:56:35.045Z,6.43
2023-02-05T02:59:08.807Z,6.44
2023-02-05T03:01:38.051Z,6.42
2023-02-05T03:04:11.557Z,6.51
2023-02-05T03:06:39.882Z,6.51
2023-02-05T03:09:12.089Z,6.50
2023-02-05T03:11:38.567Z,6.53
2023-02-05T03:14:05.154Z,6.52
2023-02-05T03:16:31.672Z,6.47
2023-02-05T03:18:58.457Z,6.51
2023-02-05T03:21:28.802Z,6.38
2023-02-05T03:23:55.194Z,6.44
2023-02-05T03:26:35.006Z,6.48
2023-02-05T03:29:04.221Z,6.36
2023-02-05T03:32:08.242Z,6.37
2023-02-05T03:34:53.526Z,6.39
2023-02-05T03:37:28.822Z,6.42
2023-02-05T03:40:07.206Z,6.41
2023-02-05T03:42:49.079Z,6.45
2023-02-05T03:45:23.225Z,6.46
2023-02-05T03:48:13.365Z,6.49
2023-02-05T03:50:52.048Z,6.49
2023-02-05T03:53:26.631Z,6.49
2023-02-05T03:56:06.944Z,6.49
2023-02-05T03:58:40.705Z,6.48
2023-02-05T04:01:09.003Z,6.45
2023-02-05T04:03:35.495Z,6.47
2023-02-05T04:06:01.932Z,6.49
2023-02-05T04:08:28.374Z,6.49
2023-02-05T04:10:54.854Z,6.48
2023-02-05T04:13:21.513Z,6.48
2023-02-05T04:15:49.367Z,6.50
2023-02-05T04:18:16.422Z,6.51
2023-02-05T04:20:43.022Z,6.53
2023-02-05T04:23:09.545Z,6.46
2023-02-05T04:25:39.787Z,6.44
2023-02-05T04:28:06.544Z,6.49
2023-02-05T04:30:33.295Z,6.43
2023-02-05T04:32:59.872Z,6.51
2023-02-05T04:35:26.486Z,6.50
2023-02-05T04:37:52.887Z,6.52
2023-02-05T04:40:20.151Z,6.28
2023-02-05T04:42:46.558Z,6.25
2023-02-05T04:45:13.081Z,6.17
2023-02-05T04:47:39.565Z,6.28
2023-02-05T04:50:06.384Z,6.23
2023-02-05T04:52:32.797Z,6.24
2023-02-05T04:54:59.220Z,6.37
2023-02-05T04:57:25.777Z,6.25
2023-02-05T04:59:52.231Z,6.29
2023-02-05T05:02:18.722Z,6.20
2023-02-05T05:04:45.213Z,6.29
2023-02-05T05:07:11.646Z,6.36
2023-02-05T05:09:38.073Z,6.39
2023-02-05T05:12:04.781Z,6.44
2023-02-05T05:14:31.168Z,6.35
2023-02-05T05:16:57.594Z,6.32
2023-02-05T05:19:24.142Z,6.29
2023-02-05T05:21:50.630Z,6.33
2023-02-05T05:24:17.029Z,6.29
2023-02-05T05:26:46.551Z,6.36
2023-02-05T05:29:13.830Z,6.37
2023-02-05T05:31:40.928Z,6.27
2023-02-05T05:34:07.417Z,6.30
2023-02-05T05:36:34.179Z,6.29
2023-02-05T05:39:21.103Z,6.21
2023-02-05T05:42:05.866Z,6.29
2023-02-05T05:44:32.281Z,6.30
2023-02-05T05:46:58.679Z,6.32
2023-02-05T05:49:25.097Z,6.37
2023-02-05T05:51:51.538Z,6.34
2023-02-05T05:54:17.976Z,6.38
2023-02-05T05:56:45.121Z,6.27
2023-02-05T05:59:12.699Z,6.27
2023-02-05T06:01:39.246Z,6.21
2023-02-05T06:04:05.787Z,6.23
2023-02-05T06:06:32.235Z,6.15
2023-02-05T06:08:58.636Z,6.12
2023-02-05T06:11:25.038Z,6.03
2023-02-05T06:13:51.475Z,6.05
2023-02-05T06:16:18.011Z,6.06
2023-02-05T06:18:44.520Z,6.12
2023-02-05T06:21:10.971Z,6.22
2023-02-05T06:23:37.361Z,6.20
2023-02-05T06:26:03.826Z,6.26
2023-02-05T06:28:30.291Z,6.25
2023-02-05T06:30:56.713Z,6.28
2023-02-05T06:33:23.190Z,6.32
2023-02-05T06:35:49.680Z,6.28
2023-02-05T06:38:16.065Z,6.24
2023-02-05T06:40:42.462Z,6.25
2023-02-05T06:43:08.946Z,6.24
2023-02-05T06:45:35.701Z,6.23
2023-02-05T06:48:02.344Z,6.20
2023-02-05T06:50:28.782Z,6.29
2023-02-05T06:52:55.230Z,6.30
2023-02-05T06:55:21.725Z,6.28
2023-02-05T06:57:48.210Z,6.34
2023-02-05T07:00:14.999Z,6.28
2023-02-05T07:02:41.394Z,6.32
2023-02-05T07:05:08.265Z,6.31
2023-02-05T07:07:34.991Z,6.26
2023-02-05T07:10:01.699Z,6.20
2023-02-05T07:12:29.324Z,6.15
2023-02-05T07:14:55.727Z,6.20
2023-02-05T07:17:22.255Z,6.27
2023-02-05T07:19:48.682Z,6.31
2023-02-05T07:22:15.445Z,6.30
2023-02-05T07:24:42.235Z,6.29
2023-02-05T07:27:08.747Z,6.29
2023-02-05T07:29:35.172Z,6.32
2023-02-05T07:32:01.725Z,6.34
2023-02-05T07:34:28.204Z,6.30
2023-02-05T07:36:54.635Z,6.27
2023-02-05T07:39:21.106Z,6.25
2023-02-05T07:41:47.590Z,6.17
2023-02-05T07:44:14.036Z,6.21
2023-02-05T07:46:40.568Z,6.13
2023-02-05T07:49:07.335Z,6.12
2023-02-05T07:51:35.306Z,6.09
2023-02-05T07:54:07.000Z,6.16
2023-02-05T07:56:33.458Z,6.08
2023-02-05T07:58:59.881Z,6.09
2023-02-05T08:01:26.323Z,6.10
2023-02-05T08:03:52.852Z,6.19
2023-02-05T08:06:19.263Z,6.22
2023-02-05T08:08:45.658Z,6.26
2023-02-05T08:11:16.399Z,6.27
2023-02-05T08:13:43.557Z,6.29
2023-02-05T08:16:11.394Z,6.26
2023-02-05T08:18:37.845Z,6.12
2023-02-05T08:21:04.548Z,6.26
2023-02-05T08:23:31.008Z,6.27
2023-02-05T08:25:58.131Z,6.27
2023-02-05T08:28:26.063Z,6.31
2023-02-05T08:30:52.717Z,6.36
2023-02-05T08:33:19.283Z,6.39
2023-02-05T08:35:45.695Z,6.43
2023-02-05T08:38:12.119Z,6.45
2023-02-05T08:40:38.676Z,6.47
2023-02-05T08:43:05.152Z,6.50
2023-02-05T08:45:31.836Z,6.52
2023-02-05T08:47:58.353Z,6.54
2023-02-05T08:50:25.310Z,6.56
2023-02-05T08:52:51.737Z,6.56
2023-02-05T08:55:18.411Z,6.55
2023-02-05T08:57:45.365Z,6.48
2023-02-05T09:00:12.949Z,6.48
2023-02-05T09:02:42.232Z,6.54
2023-02-05T09:05:09.761Z,6.62
2023-02-05T09:07:38.590Z,6.69
2023-02-05T09:10:09.882Z,6.76
2023-02-05T09:12:36.328Z,6.80
2023-02-05T09:15:02.768Z,6.84
2023-02-05T09:17:29.202Z,6.87
2023-02-05T09:19:55.647Z,6.84
2023-02-05T09:22:22.047Z,6.84
2023-02-05T09:24:48.489Z,6.87
2023-02-05T09:27:14.992Z,6.83
2023-02-05T09:29:41.806Z,6.94
2023-02-05T09:32:08.498Z,6.98
2023-02-05T09:34:34.988Z,7.06
2023-02-05T09:37:01.425Z,7.16
2023-02-05T09:40:02.211Z,7.23
2023-02-05T09:43:01.456Z,7.30
2023-02-05T09:45:35.626Z,7.30
2023-02-05T09:48:17.665Z,7.24
2023-02-05T09:50:44.237Z,7.29
2023-02-05T09:53:18.470Z,7.32
2023-02-05T09:55:46.464Z,7.30
2023-02-05T09:58:19.583Z,7.32
2023-02-05T10:00:52.983Z,7.32
2023-02-05T10:03:28.899Z,7.31
2023-02-05T10:06:10.951Z,7.36
2023-02-05T10:08:59.879Z,7.32
2023-02-05T10:11:40.383Z,7.29
2023-02-05T10:14:38.187Z,7.31
2023-02-05T10:17:29.477Z,7.30
2023-02-05T10:20:14.577Z,7.29
2023-02-05T10:22:53.135Z,7.31
2023-02-05T10:25:22.544Z,7.30
2023-02-05T10:28:04.565Z,7.31
2023-02-05T10:30:34.563Z,7.23
2023-02-05T10:33:11.310Z,7.21
2023-02-05T10:35:51.373Z,7.18
2023-02-05T10:38:23.826Z,7.19
2023-02-05T10:40:55.281Z,7.17
2023-02-05T10:43:26.532Z,7.21
2023-02-05T10:45:53.452Z,7.29
2023-02-05T10:48:30.504Z,7.30
2023-02-05T10:51:02.981Z,7.34
2023-02-05T10:53:30.102Z,7.39
2023-02-05T10:55:57.900Z,7.37
2023-02-05T10:58:28.790Z,7.35
2023-02-05T11:00:55.604Z,7.35
2023-02-05T11:03:22.623Z,7.38
2023-02-05T11:05:49.632Z,7.36
2023-02-05T11:08:34.837Z,7.33
2023-02-05T11:11:01.935Z,7.32
2023-02-05T11:13:28.530Z,7.32
2023-02-05T11:16:02.663Z,7.36
2023-02-05T11:18:32.818Z,7.35
2023-02-05T11:21:01.597Z,7.38
2023-02-05T11:23:38.251Z,7.30
2023-02-05T11:26:18.245Z,7.29
2023-02-05T11:28:45.101Z,7.31
2023-02-05T11:31:31.435Z,7.39
2023-02-05T11:34:19.895Z,7.39
2023-02-05T11:36:54.677Z,7.37
2023-02-05T11:39:41.104Z,7.34
2023-02-05T11:42:17.760Z,7.42
2023-02-05T11:44:50.349Z,7.50
2023-02-05T11:47:25.622Z,7.62
2023-02-05T11:49:52.206Z,7.74
2023-02-05T11:52:25.826Z,7.86
2023-02-05T11:54:52.571Z,7.92
2023-02-05T11:57:21.816Z,8.00
2023-02-05T12:00:20.803Z,7.89
2023-02-05T12:02:53.884Z,7.91
2023-02-05T12:05:20.577Z,8.02
2023-02-05T12:07:48.988Z,8.02
2023-02-05T12:10:17.702Z,7.99
2023-02-05T12:12:53.947Z,8.01
2023-02-05T12:15:25.856Z,7.96
2023-02-05T12:18:18.095Z,7.96
2023-02-05T12:21:04.217Z,8.05
2023-02-05T12:23:42.190Z,8.08
2023-02-05T12:26:17.515Z,7.83
2023-02-05T12:28:46.881Z,7.73
2023-02-05T12:31:16.418Z,7.72
2023-02-05T12:34:24.199Z,7.69
2023-02-05T12:37:01.162Z,7.70
2023-02-05T12:39:47.346Z,7.58
2023-02-05T12:42:36.684Z,7.67
2023-02-05T12:45:22.823Z,7.70
2023-02-05T12:48:21.728Z,7.83
2023-02-05T12:50:58.256Z,7.83
2023-02-05T12:53:34.657Z,7.93
2023-02-05T12:56:16.364Z,7.94
2023-02-05T12:58:46.325Z,7.89
2023-02-05T13:01:24.932Z,7.78
2023-02-05T13:03:55.172Z,7.68
2023-02-05T13:06:27.810Z,7.62
2023-02-05T13:09:21.170Z,7.58
2023-02-05T13:11:54.006Z,7.59
2023-02-05T13:14:38.085Z,7.47
2023-02-05T13:17:28.580Z,7.30
2023-02-05T13:20:00.548Z,7.37
2023-02-05T13:22:50.305Z,7.45
2023-02-05T13:25:39.854Z,7.59
2023-02-05T13:28:37.902Z,7.46
2023-02-05T13:31:05.141Z,7.50
2023-02-05T13:33:31.717Z,7.51
2023-02-05T13:36:28.925Z,7.48
2023-02-05T13:39:16.808Z,7.51
2023-02-05T13:42:13.149Z,7.44
2023-02-05T13:44:58.230Z,7.54
2023-02-05T13:47:27.510Z,7.54
2023-02-05T13:50:09.200Z,7.47
2023-02-05T13:52:42.117Z,7.58
2023-02-05T13:55:26.901Z,7.52
2023-02-05T13:58:13.289Z,7.46
2023-02-05T14:00:41.803Z,7.37
2023-02-05T14:03:09.706Z,7.32
2023-02-05T14:05:38.619Z,7.34
2023-02-05T14:08:06.006Z,7.34
2023-02-05T14:10:39.062Z,7.27
2023-02-05T14:13:10.685Z,7.31
2023-02-05T14:15:42.118Z,7.30
2023-02-05T14:18:31.286Z,7.31
2023-02-05T14:20:57.710Z,7.34
2023-02-05T14:23:45.793Z,7.38
2023-02-05T14:26:12.255Z,7.35
2023-02-05T14:28:47.413Z,7.32
2023-02-05T14:31:45.688Z,7.38
2023-02-05T14:34:44.996Z,7.33
2023-02-05T14:37:28.249Z,7.30
2023-02-05T14:39:54.761Z,7.30
2023-02-05T14:42:22.057Z,7.33
2023-02-05T14:44:54.563Z,7.32
2023-02-05T14:47:26.067Z,7.39
2023-02-05T14:49:59.211Z,7.31
2023-02-05T14:52:28.171Z,7.25
2023-02-05T14:55:13.043Z,7.27
2023-02-05T14:57:51.375Z,7.27
2023-02-05T15:00:29.990Z,7.31
2023-02-05T15:03:05.617Z,7.30
2023-02-05T15:05:32.045Z,7.28
2023-02-05T15:08:06.228Z,7.32
2023-02-05T15:10:37.879Z,7.22
2023-02-05T15:13:14.864Z,7.25
2023-02-05T15:15:41.476Z,7.29
2023-02-05T15:18:24.174Z,7.23
2023-02-05T15:20:52.359Z,7.27
2023-02-05T15:23:37.462Z,7.25
2023-02-05T15:26:10.331Z,7.18
2023-02-05T15:28:40.872Z,7.18
2023-02-05T15:31:26.329Z,7.20
2023-02-05T15:34:14.017Z,7.27
2023-02-05T15:36:46.035Z,7.31
2023-02-05T15:39:26.977Z,7.25
2023-02-05T15:41:56.042Z,7.12
2023-02-05T15:44:27.867Z,7.10
2023-02-05T15:46:54.758Z,7.06
2023-02-05T15:49:28.831Z,7.07
2023-02-05T15:51:55.384Z,7.04
2023-02-05T15:54:22.894Z,7.02
2023-02-05T15:56:52.131Z,6.98
2023-02-05T15:59:25.553Z,6.91
2023-02-05T16:02:09.046Z,6.85
2023-02-05T16:04:39.923Z,6.83
2023-02-05T16:07:25.891Z,6.87
2023-02-05T16:09:57.950Z,6.90
2023-02-05T16:12:24.671Z,6.86
2023-02-05T16:15:01.834Z,6.82
2023-02-05T16:17:33.887Z,6.83
2023-02-05T16:20:28.781Z,6.85
2023-02-05T16:23:01.337Z,6.84
2023-02-05T16:25:50.361Z,6.85
2023-02-05T16:28:26.429Z,6.86
2023-02-05T16:30:55.163Z,6.77
2023-02-05T16:33:24.624Z,6.85
2023-02-05T16:35:51.383Z,6.84
2023-02-05T16:38:23.356Z,6.87
2023-02-05T16:40:53.087Z,6.90
2023-02-05T16:43:29.965Z,6.80
2023-02-05T16:46:08.584Z,6.84
2023-02-05T16:48:46.891Z,6.76
2023-02-05T16:51:41.067Z,6.80
2023-02-05T16:54:10.480Z,6.78
2023-02-05T16:57:06.254Z,6.74
2023-02-05T16:59:44.187Z,6.76
2023-02-05T17:02:23.259Z,6.71
2023-02-05T17:04:51.543Z,6.79
2023-02-05T17:07:19.336Z,6.71
2023-02-05T17:09:45.809Z,6.72
2023-02-05T17:12:21.516Z,6.75
2023-02-05T17:14:57.158Z,6.74
2023-02-05T17:17:25.157Z,6.70
2023-02-05T17:20:07.262Z,6.69
2023-02-05T17:22:34.700Z,6.72
2023-02-05T17:25:02.164Z,6.75
2023-02-05T17:27:31.356Z,6.76
2023-02-05T17:29:58.822Z,6.74
2023-02-05T17:32:26.144Z,6.70
2023-02-05T17:34:52.844Z,6.71
2023-02-05T17:37:19.363Z,6.67
2023-02-05T17:39:45.783Z,6.69
2023-02-05T17:42:19.822Z,6.66
2023-02-05T17:44:46.204Z,6.62
2023-02-05T17:47:12.974Z,6.68
2023-02-05T17:49:39.477Z,6.58
2023-02-05T17:52:05.931Z,6.57
2023-02-05T17:54:32.353Z,6.57
2023-02-05T17:57:15.556Z,6.67
2023-02-05T17:59:44.617Z,6.67
2023-02-05T18:02:12.236Z,6.65
2023-02-05T18:04:39.420Z,6.61
2023-02-05T18:07:18.661Z,6.57
2023-02-05T18:09:45.089Z,6.52
2023-02-05T18:12:11.504Z,6.45
2023-02-05T18:14:37.963Z,6.48
2023-02-05T18:17:04.391Z,6.44
2023-02-05T18:19:30.988Z,6.44
2023-02-05T18:21:57.375Z,6.48
2023-02-05T18:24:23.870Z,6.34
2023-02-05T18:26:52.616Z,6.38
2023-02-05T18:29:21.315Z,6.28
2023-02-05T18:31:48.768Z,6.34
2023-02-05T18:34:15.576Z,6.40
2023-02-05T18:36:41.964Z,6.38
2023-02-05T18:39:09.721Z,6.31
2023-02-05T18:41:36.992Z,6.32
2023-02-05T18:44:03.492Z,6.31
2023-02-05T18:46:30.020Z,6.28
2023-02-05T18:48:56.499Z,6.28
2023-02-05T18:51:23.266Z,6.32
2023-02-05T18:53:50.224Z,6.30
2023-02-05T18:56:21.804Z,6.24
2023-02-05T18:58:53.369Z,6.28
2023-02-05T19:01:20.466Z,6.25
2023-02-05T19:03:46.982Z,6.21
2023-02-05T19:06:15.678Z,6.26
2023-02-05T19:08:42.812Z,6.22
2023-02-05T19:11:14.987Z,6.21
2023-02-05T19:13:41.820Z,6.21
2023-02-05T19:16:12.668Z,6.28
2023-02-05T19:18:40.167Z,6.23
2023-02-05T19:21:11.299Z,6.18
2023-02-05T19:23:38.090Z,6.17
2023-02-05T19:26:13.972Z,6.16
2023-02-05T19:28:40.955Z,6.20
2023-02-05T19:31:10.266Z,6.17
2023-02-05T19:33:37.908Z,6.15
2023-02-05T19:36:06.921Z,6.16
2023-02-05T19:38:35.299Z,6.05
2023-02-05T19:41:08.790Z,6.10
2023-02-05T19:43:35.293Z,6.13
2023-02-05T19:46:05.978Z,6.08
2023-02-05T19:48:32.648Z,6.08
2023-02-05T19:51:10.171Z,6.09
2023-02-05T19:53:38.140Z,6.12
2023-02-05T19:56:07.510Z,6.13
2023-02-05T19:58:35.143Z,6.09
2023-02-05T20:01:01.736Z,6.10
2023-02-05T20:03:31.354Z,6.07
2023-02-05T20:06:01.034Z,6.10
2023-02-05T20:08:29.324Z,6.12
2023-02-05T20:11:00.114Z,6.12
2023-02-05T20:13:27.706Z,6.06
2023-02-05T20:15:54.484Z,6.09
2023-02-05T20:18:20.978Z,6.09
2023-02-05T20:20:47.684Z,6.15
2023-02-05T20:23:14.965Z,6.13
2023-02-05T20:25:41.361Z,6.10
2023-02-05T20:28:07.810Z,6.13
2023-02-05T20:30:53.094Z,6.14
2023-02-05T20:33:19.637Z,6.17
2023-02-05T20:35:46.027Z,6.14
2023-02-05T20:38:12.523Z,6.16
2023-02-05T20:40:38.920Z,6.16
2023-02-05T20:43:07.810Z,6.24
2023-02-05T20:45:34.226Z,6.14
2023-02-05T20:48:00.634Z,6.19
2023-02-05T20:50:27.038Z,6.16
2023-02-05T20:52:53.453Z,6.16
2023-02-05T20:55:19.882Z,6.15
2023-02-05T20:57:46.310Z,6.12
2023-02-05T21:00:13.279Z,6.13
2023-02-05T21:02:39.662Z,6.15
2023-02-05T21:05:06.472Z,6.16
2023-02-05T21:07:32.904Z,6.19
2023-02-05T21:10:02.029Z,6.20
2023-02-05T21:12:31.019Z,6.13
2023-02-05T21:14:57.420Z,6.17
2023-02-05T21:17:23.851Z,6.15
2023-02-05T21:19:50.286Z,6.20
2023-02-05T21:22:17.192Z,6.17
2023-02-05T21:24:43.715Z,6.15
2023-02-05T21:27:10.151Z,6.13
2023-02-05T21:29:36.682Z,6.19
2023-02-05T21:32:03.333Z,6.28
2023-02-05T21:34:29.838Z,6.26
2023-02-05T21:36:56.514Z,6.19
2023-02-05T21:39:23.709Z,6.21
2023-02-05T21:41:53.932Z,6.21
2023-02-05T21:44:20.722Z,6.23
2023-02-05T21:46:47.189Z,6.23
2023-02-05T21:49:13.717Z,6.19
2023-02-05T21:51:42.319Z,6.12
2023-02-05T21:54:10.029Z,6.17
2023-02-05T21:56:39.008Z,6.14
2023-02-05T21:59:06.127Z,6.18
2023-02-05T22:01:34.789Z,6.20
2023-02-05T22:04:04.436Z,6.11
2023-02-05T22:06:33.087Z,6.17
2023-02-05T22:09:00.692Z,6.23
2023-02-05T22:11:27.499Z,6.21
2023-02-05T22:13:55.462Z,6.18
2023-02-05T22:16:25.659Z,6.23
2023-02-05T22:18:52.805Z,6.27
2023-02-05T22:21:24.249Z,6.22
2023-02-05T22:23:53.343Z,6.16
2023-02-05T22:26:41.508Z,6.22
2023-02-05T22:29:10.626Z,6.16
2023-02-05T22:31:37.167Z,6.15
2023-02-05T22:34:03.814Z,6.12
2023-02-05T22:36:31.645Z,6.16
2023-02-05T22:38:58.531Z,6.19
2023-02-05T22:41:28.010Z,6.26
2023-02-05T22:43:55.324Z,6.20
2023-02-05T22:46:24.057Z,6.19
2023-02-05T22:48:51.770Z,6.23
2023-02-05T22:51:23.237Z,6.24
2023-02-05T22:53:49.862Z,6.17
2023-02-05T22:56:16.923Z,6.22
2023-02-05T22:58:47.718Z,6.14
2023-02-05T23:01:16.781Z,6.16
2023-02-05T23:03:43.636Z,6.21
2023-02-05T23:06:12.797Z,6.25
2023-02-05T23:08:39.499Z,6.22
2023-02-05T23:11:07.971Z,6.17
2023-02-05T23:13:34.636Z,6.09
2023-02-05T23:16:07.285Z,6.14
2023-02-05T23:18:34.194Z,6.03
2023-02-05T23:21:00.601Z,6.09
2023-02-05T23:23:27.098Z,6.15
2023-02-05T23:25:54.948Z,6.12
2023-02-05T23:28:24.267Z,6.11
2023-02-05T23:30:50.791Z,6.14
2023-02-05T23:33:17.217Z,6.15
2023-02-05T23:35:43.804Z,6.08
2023-02-05T23:38:10.266Z,6.10
2023-02-05T23:40:36.675Z,6.16
2023-02-05T23:43:03.064Z,6.22
2023-02-05T23:45:30.676Z,6.23
2023-02-05T23:47:57.133Z,6.28
2023-02-05T23:50:23.532Z,6.32
2023-02-05T23:52:50.045Z,6.25
2023-02-05T23:55:16.484Z,6.23
2023-02-05T23:57:42.871Z,6.28
